createdAt,value
2022-12-11T00:01:55.326Z,13.74
2022-12-11T00:04:21.621Z,13.66
2022-12-11T00:06:47.894Z,14.11
2022-12-11T00:09:14.177Z,14.38
2022-12-11T00:11:40.431Z,14.43
2022-12-11T00:14:06.711Z,14.42
2022-12-11T00:16:33.018Z,14.18
2022-12-11T00:18:59.296Z,15.29
2022-12-11T00:21:25.549Z,15.34
2022-12-11T00:23:51.805Z,15.47
2022-12-11T00:26:18.072Z,15.78
2022-12-11T00:28:44.349Z,15.59
2022-12-11T00:31:10.609Z,16.49
2022-12-11T00:33:36.988Z,16.31
2022-12-11T00:36:03.256Z,17.06
2022-12-11T00:38:29.510Z,17.18
2022-12-11T00:40:55.781Z,17.64
2022-12-11T00:43:22.062Z,17.80
2022-12-11T00:45:48.386Z,18.44
2022-12-11T00:48:14.684Z,18.26
2022-12-11T00:50:40.952Z,18.45
2022-12-11T00:53:07.204Z,18.51
2022-12-11T00:55:33.462Z,19.14
2022-12-11T00:57:59.709Z,18.91
2022-12-11T01:00:25.987Z,19.07
2022-12-11T01:02:52.291Z,18.71
2022-12-11T01:05:18.694Z,19.21
2022-12-11T01:07:44.993Z,19.25
2022-12-11T01:10:11.334Z,19.00
2022-12-11T01:12:37.660Z,19.19
2022-12-11T01:15:03.914Z,18.88
2022-12-11T01:17:30.199Z,18.93
2022-12-11T01:19:56.452Z,19.57
2022-12-11T01:22:22.711Z,19.12
2022-12-11T01:24:48.952Z,19.48
2022-12-11T01:27:15.216Z,20.15
2022-12-11T01:29:41.466Z,19.51
2022-12-11T01:32:07.732Z,19.33
2022-12-11T01:34:33.992Z,18.30
2022-12-11T01:37:00.274Z,18.37
2022-12-11T01:39:26.530Z,19.14
2022-12-11T01:41:52.786Z,19.28
2022-12-11T01:44:19.088Z,19.04
2022-12-11T01:46:45.340Z,19.14
2022-12-11T01:49:11.602Z,18.95
2022-12-11T01:51:37.849Z,19.65
2022-12-11T01:54:04.095Z,19.58
2022-12-11T01:56:30.346Z,19.86
2022-12-11T01:58:56.607Z,18.91
2022-12-11T02:01:22.924Z,19.12
2022-12-11T02:03:49.198Z,19.25
2022-12-11T02:06:15.455Z,18.80
2022-12-11T02:08:41.761Z,19.22
2022-12-11T02:11:08.025Z,19.00
2022-12-11T02:13:34.293Z,19.43
2022-12-11T02:16:00.650Z,19.80
2022-12-11T02:18:26.934Z,19.73
2022-12-11T02:20:53.189Z,19.94
2022-12-11T02:23:19.439Z,19.49
2022-12-11T02:25:45.718Z,20.32
2022-12-11T02:28:11.973Z,20.00
2022-12-11T02:30:38.254Z,19.58
2022-12-11T02:33:04.505Z,19.67
2022-12-11T02:35:30.791Z,19.96
2022-12-11T02:37:57.050Z,19.24
2022-12-11T02:40:23.324Z,19.74
2022-12-11T02:42:49.574Z,19.27
2022-12-11T02:45:15.838Z,19.32
2022-12-11T02:47:42.101Z,19.27
2022-12-11T02:50:08.382Z,19.45
2022-12-11T02:52:34.640Z,19.44
2022-12-11T02:55:00.886Z,19.15
2022-12-11T02:57:27.145Z,18.99
2022-12-11T02:59:53.389Z,19.02
2022-12-11T03:02:19.695Z,19.59
2022-12-11T03:04:46.018Z,19.52
2022-12-11T03:07:12.434Z,19.24
2022-12-11T03:09:38.726Z,20.07
2022-12-11T03:12:04.970Z,19.22
2022-12-11T03:14:31.221Z,19.78
2022-12-11T03:16:57.469Z,20.08
2022-12-11T03:19:23.733Z,20.60
2022-12-11T03:21:49.986Z,20.30
2022-12-11T03:24:16.265Z,19.50
2022-12-11T03:26:42.631Z,20.59
2022-12-11T03:29:08.893Z,19.44
2022-12-11T03:31:35.165Z,19.51
2022-12-11T03:34:01.440Z,19.89
2022-12-11T03:36:27.694Z,19.11
2022-12-11T03:38:53.938Z,19.24
2022-12-11T03:41:20.308Z,19.19
2022-12-11T03:43:46.569Z,18.78
2022-12-11T03:46:12.879Z,17.97
2022-12-11T03:48:39.220Z,18.11
2022-12-11T03:51:05.485Z,18.19
2022-12-11T03:53:31.730Z,18.48
2022-12-11T03:55:57.977Z,19.05
2022-12-11T03:58:24.244Z,18.73
2022-12-11T04:00:50.509Z,19.08
2022-12-11T04:03:16.771Z,19.16
2022-12-11T04:05:43.021Z,19.56
2022-12-11T04:08:09.296Z,19.54
2022-12-11T04:10:35.593Z,19.16
2022-12-11T04:13:01.857Z,19.88
2022-12-11T04:15:28.164Z,19.35
2022-12-11T04:17:54.403Z,20.21
2022-12-11T04:20:20.657Z,19.84
2022-12-11T04:22:46.909Z,19.50
2022-12-11T04:25:13.466Z,20.57
2022-12-11T04:27:39.965Z,20.18
2022-12-11T04:30:06.217Z,20.28
2022-12-11T04:32:32.494Z,21.21
2022-12-11T04:34:58.763Z,21.02
2022-12-11T04:37:25.002Z,20.59
2022-12-11T04:39:51.281Z,20.83
2022-12-11T04:42:17.534Z,20.86
2022-12-11T04:44:43.801Z,21.06
2022-12-11T04:47:10.057Z,20.99
2022-12-11T04:49:36.345Z,20.95
2022-12-11T04:52:02.609Z,20.51
2022-12-11T04:54:28.883Z,21.52
2022-12-11T04:56:55.168Z,20.70
2022-12-11T04:59:21.421Z,21.48
2022-12-11T05:01:47.865Z,20.79
2022-12-11T05:04:14.251Z,20.66
2022-12-11T05:06:40.495Z,21.09
2022-12-11T05:09:06.840Z,21.23
2022-12-11T05:11:33.111Z,20.83
2022-12-11T05:13:59.357Z,21.33
2022-12-11T05:16:25.700Z,20.41
2022-12-11T05:18:51.988Z,20.32
2022-12-11T05:21:18.298Z,20.51
2022-12-11T05:23:44.581Z,20.14
2022-12-11T05:26:10.861Z,20.28
2022-12-11T05:28:37.115Z,20.40
2022-12-11T05:31:03.412Z,20.23
2022-12-11T05:33:29.725Z,20.18
2022-12-11T05:35:56.008Z,20.09
2022-12-11T05:38:22.264Z,19.62
2022-12-11T05:40:48.549Z,19.56
2022-12-11T05:43:14.807Z,19.49
2022-12-11T05:45:41.045Z,19.66
2022-12-11T05:48:07.309Z,19.52
2022-12-11T05:50:33.777Z,20.16
2022-12-11T05:53:00.072Z,19.09
2022-12-11T05:55:26.318Z,19.32
2022-12-11T05:57:52.566Z,18.88
2022-12-11T06:00:18.857Z,18.45
2022-12-11T06:02:45.217Z,18.35
2022-12-11T06:05:11.850Z,18.16
2022-12-11T06:07:38.233Z,18.33
2022-12-11T06:10:04.535Z,18.82
2022-12-11T06:12:30.809Z,19.24
2022-12-11T06:14:57.086Z,20.59
2022-12-11T06:17:23.346Z,20.09
2022-12-11T06:19:49.606Z,19.96
2022-12-11T06:22:15.882Z,20.31
2022-12-11T06:24:42.142Z,20.52
2022-12-11T06:27:08.392Z,21.67
2022-12-11T06:29:34.644Z,27.17
2022-12-11T06:32:00.959Z,29.22
2022-12-11T06:34:27.239Z,25.01
2022-12-11T06:36:53.499Z,21.09
2022-12-11T06:39:19.762Z,21.56
2022-12-11T06:41:46.018Z,21.29
2022-12-11T06:44:12.261Z,20.74
2022-12-11T06:46:38.503Z,21.44
2022-12-11T06:49:04.769Z,21.26
2022-12-11T06:51:31.044Z,21.04
2022-12-11T06:53:57.300Z,21.24
2022-12-11T06:56:23.542Z,21.56
2022-12-11T06:58:49.838Z,21.11
2022-12-11T07:01:16.147Z,21.32
2022-12-11T07:03:42.452Z,20.97
2022-12-11T07:06:08.717Z,20.88
2022-12-11T07:08:34.974Z,21.74
2022-12-11T07:11:01.230Z,22.31
2022-12-11T07:13:27.504Z,22.82
2022-12-11T07:15:53.763Z,21.30
2022-12-11T07:18:20.036Z,20.82
2022-12-11T07:20:46.309Z,21.19
2022-12-11T07:23:12.658Z,20.65
2022-12-11T07:25:38.908Z,20.44
2022-12-11T07:28:05.166Z,19.71
2022-12-11T07:30:31.414Z,20.14
2022-12-11T07:32:57.736Z,18.25
2022-12-11T07:35:24.040Z,18.10
2022-12-11T07:37:50.309Z,16.98
2022-12-11T07:40:16.565Z,17.48
2022-12-11T07:42:46.124Z,18.20
2022-12-11T07:45:13.084Z,17.30
2022-12-11T07:47:39.499Z,16.31
2022-12-11T07:50:05.771Z,15.20
2022-12-11T07:52:32.034Z,14.64
2022-12-11T07:54:58.380Z,14.31
2022-12-11T07:57:24.658Z,13.69
2022-12-11T07:59:50.904Z,13.06
2022-12-11T08:02:17.203Z,12.78
2022-12-11T08:04:43.508Z,12.29
2022-12-11T08:07:09.781Z,12.34
2022-12-11T08:09:36.022Z,12.17
2022-12-11T08:12:02.281Z,11.71
2022-12-11T08:14:28.534Z,11.71
2022-12-11T08:16:54.858Z,11.99
2022-12-11T08:19:21.150Z,11.73
2022-12-11T08:21:47.409Z,10.98
2022-12-11T08:24:13.686Z,10.88
2022-12-11T08:26:40.065Z,10.86
2022-12-11T08:29:06.379Z,10.57
2022-12-11T08:31:32.633Z,11.01
2022-12-11T08:33:58.902Z,10.51
2022-12-11T08:36:25.209Z,10.82
2022-12-11T08:38:51.516Z,10.77
2022-12-11T08:41:17.765Z,10.87
2022-12-11T08:43:44.005Z,10.79
2022-12-11T08:46:10.346Z,11.02
2022-12-11T08:48:36.636Z,11.54
2022-12-11T08:51:02.901Z,11.74
2022-12-11T08:53:29.158Z,11.26
2022-12-11T08:55:55.398Z,11.19
2022-12-11T08:58:21.651Z,11.63
2022-12-11T09:00:47.916Z,11.84
2022-12-11T09:03:14.335Z,11.10
2022-12-11T09:05:40.612Z,11.73
2022-12-11T09:08:06.916Z,12.68
2022-12-11T09:10:33.200Z,12.74
2022-12-11T09:12:59.452Z,12.45
2022-12-11T09:15:25.730Z,12.43
2022-12-11T09:17:51.975Z,11.74
2022-12-11T09:20:18.261Z,12.76
2022-12-11T09:22:44.507Z,12.89
2022-12-11T09:25:11.170Z,13.04
2022-12-11T09:27:37.561Z,13.05
2022-12-11T09:30:03.819Z,13.25
2022-12-11T09:32:30.101Z,13.06
2022-12-11T09:34:56.367Z,13.17
2022-12-11T09:37:22.633Z,13.04
2022-12-11T09:39:49.004Z,13.55
2022-12-11T09:42:15.253Z,13.67
2022-12-11T09:44:41.557Z,13.62
2022-12-11T09:47:07.837Z,13.60
2022-12-11T09:49:34.135Z,13.41
2022-12-11T09:52:00.388Z,14.09
2022-12-11T09:54:26.645Z,13.62
2022-12-11T09:56:52.910Z,14.06
2022-12-11T09:59:19.186Z,13.97
2022-12-11T10:01:45.503Z,14.49
2022-12-11T10:04:11.837Z,14.62
2022-12-11T10:06:38.121Z,14.17
2022-12-11T10:09:04.386Z,14.14
2022-12-11T10:11:30.670Z,14.20
2022-12-11T10:13:56.998Z,14.19
2022-12-11T10:16:23.270Z,14.45
2022-12-11T10:18:49.537Z,14.47
2022-12-11T10:21:15.832Z,14.30
2022-12-11T10:23:42.098Z,14.37
2022-12-11T10:26:08.365Z,14.37
2022-12-11T10:28:34.638Z,14.42
2022-12-11T10:31:00.955Z,14.11
2022-12-11T10:33:27.234Z,14.69
2022-12-11T10:35:53.503Z,14.48
2022-12-11T10:38:19.781Z,14.69
2022-12-11T10:40:46.047Z,14.26
2022-12-11T10:43:12.369Z,14.61
2022-12-11T10:45:38.635Z,15.05
2022-12-11T10:48:04.893Z,15.12
2022-12-11T10:50:31.180Z,14.19
2022-12-11T10:52:57.453Z,14.59
2022-12-11T10:55:23.743Z,14.55
2022-12-11T10:57:49.985Z,14.51
2022-12-11T11:00:16.249Z,14.78
2022-12-11T11:02:42.559Z,14.96
2022-12-11T11:05:09.146Z,14.95
2022-12-11T11:07:35.620Z,15.27
2022-12-11T11:10:01.912Z,14.90
2022-12-11T11:12:28.168Z,14.94
2022-12-11T11:14:54.428Z,14.91
2022-12-11T11:17:20.747Z,14.28
2022-12-11T11:19:47.023Z,14.43
2022-12-11T11:22:13.286Z,14.10
2022-12-11T11:24:39.560Z,14.25
2022-12-11T11:27:13.350Z,14.52
2022-12-11T11:29:40.026Z,14.65
2022-12-11T11:32:06.299Z,14.90
2022-12-11T11:34:32.585Z,14.92
2022-12-11T11:36:58.829Z,14.94
2022-12-11T11:39:25.076Z,15.44
2022-12-11T11:41:51.347Z,15.29
2022-12-11T11:44:17.618Z,15.20
2022-12-11T11:46:43.975Z,14.96
2022-12-11T11:49:10.279Z,15.14
2022-12-11T11:51:36.550Z,15.05
2022-12-11T11:54:02.864Z,16.02
2022-12-11T11:56:29.117Z,15.09
2022-12-11T11:58:55.404Z,14.99
2022-12-11T12:01:21.682Z,15.71
2022-12-11T12:03:47.978Z,15.50
2022-12-11T12:06:15.540Z,15.62
2022-12-11T12:08:42.019Z,15.48
2022-12-11T12:11:08.364Z,16.06
2022-12-11T12:13:50.612Z,15.74
2022-12-11T12:16:50.414Z,17.61
2022-12-11T12:19:03.317Z,15.72
2022-12-11T12:21:29.584Z,16.28
2022-12-11T12:23:55.842Z,15.60
2022-12-11T12:26:22.115Z,16.00
2022-12-11T12:28:48.398Z,15.73
2022-12-11T12:31:14.703Z,15.54
2022-12-11T12:33:41.075Z,15.79
2022-12-11T12:36:07.545Z,15.50
2022-12-11T12:38:33.841Z,16.30
2022-12-11T12:41:00.111Z,16.06
2022-12-11T12:43:26.383Z,16.34
2022-12-11T12:45:52.726Z,15.73
2022-12-11T12:48:19.075Z,16.19
2022-12-11T12:50:45.325Z,16.17
2022-12-11T12:53:11.581Z,16.13
2022-12-11T12:55:37.857Z,15.71
2022-12-11T12:58:04.155Z,15.65
2022-12-11T13:00:30.469Z,16.67
2022-12-11T13:02:56.743Z,15.24
2022-12-11T13:05:23.061Z,15.45
2022-12-11T13:07:54.015Z,15.31
2022-12-11T13:10:20.919Z,15.47
2022-12-11T13:12:47.192Z,15.31
2022-12-11T13:15:13.690Z,15.58
2022-12-11T13:17:40.196Z,14.89
2022-12-11T13:20:06.445Z,15.36
2022-12-11T13:22:32.777Z,15.70
2022-12-11T13:24:59.279Z,15.99
2022-12-11T13:27:25.551Z,15.27
2022-12-11T13:29:51.791Z,16.19
2022-12-11T13:32:18.221Z,16.15
2022-12-11T13:34:44.517Z,15.98
2022-12-11T13:37:10.832Z,15.29
2022-12-11T13:39:37.348Z,15.57
2022-12-11T13:42:03.629Z,15.78
2022-12-11T13:44:29.936Z,16.25
2022-12-11T13:46:56.205Z,16.41
2022-12-11T13:49:22.495Z,16.09
2022-12-11T13:51:48.754Z,16.07
2022-12-11T13:54:16.953Z,16.61
2022-12-11T13:56:43.830Z,16.53
2022-12-11T13:59:10.137Z,16.57
2022-12-11T14:01:36.442Z,16.46
2022-12-11T14:04:02.727Z,16.47
2022-12-11T14:06:28.983Z,16.44
2022-12-11T14:08:55.275Z,16.21
2022-12-11T14:11:21.566Z,16.63
2022-12-11T14:13:47.871Z,16.75
2022-12-11T14:16:14.249Z,16.79
2022-12-11T14:18:40.505Z,16.73
2022-12-11T14:21:06.785Z,16.44
2022-12-11T14:23:33.063Z,16.78
2022-12-11T14:25:59.312Z,17.14
2022-12-11T14:28:25.570Z,16.85
2022-12-11T14:30:51.846Z,16.66
2022-12-11T14:33:18.124Z,17.04
2022-12-11T14:35:44.405Z,17.60
2022-12-11T14:38:10.679Z,17.30
2022-12-11T14:40:36.955Z,17.52
2022-12-11T14:43:03.225Z,17.19
2022-12-11T14:45:29.578Z,17.68
2022-12-11T14:47:55.870Z,17.33
2022-12-11T14:50:22.126Z,18.03
2022-12-11T14:52:48.403Z,18.64
2022-12-11T14:55:14.688Z,17.60
2022-12-11T14:57:40.960Z,18.19
2022-12-11T15:00:07.217Z,17.90
2022-12-11T15:02:33.566Z,18.45
2022-12-11T15:04:59.859Z,18.17
2022-12-11T15:07:26.110Z,17.97
2022-12-11T15:09:52.368Z,18.39
2022-12-11T15:12:18.612Z,17.94
2022-12-11T15:14:44.897Z,18.30
2022-12-11T15:17:11.173Z,18.22
2022-12-11T15:19:37.427Z,18.39
2022-12-11T15:22:03.822Z,18.63
2022-12-11T15:24:30.179Z,18.41
2022-12-11T15:26:56.501Z,18.56
2022-12-11T15:29:22.775Z,18.67
2022-12-11T15:31:49.046Z,19.22
2022-12-11T15:34:15.306Z,20.18
2022-12-11T15:36:41.554Z,19.60
2022-12-11T15:39:07.832Z,18.99
2022-12-11T15:41:34.103Z,19.26
2022-12-11T15:44:00.385Z,18.93
2022-12-11T15:46:26.829Z,19.28
2022-12-11T15:48:53.291Z,19.65
2022-12-11T15:51:19.551Z,19.32
2022-12-11T15:53:45.930Z,19.82
2022-12-11T15:56:12.184Z,20.28
2022-12-11T15:58:38.460Z,20.04
2022-12-11T16:01:04.747Z,19.76
2022-12-11T16:03:31.052Z,19.96
2022-12-11T16:05:57.321Z,19.96
2022-12-11T16:08:23.682Z,20.15
2022-12-11T16:10:49.982Z,20.22
2022-12-11T16:13:16.256Z,19.75
2022-12-11T16:15:42.597Z,20.19
2022-12-11T16:18:08.930Z,20.55
2022-12-11T16:20:35.257Z,20.85
2022-12-11T16:23:01.581Z,20.99
2022-12-11T16:25:27.887Z,21.10
2022-12-11T16:27:54.160Z,21.11
2022-12-11T16:30:20.433Z,22.52
2022-12-11T16:32:46.720Z,22.62
2022-12-11T16:35:13.337Z,22.28
2022-12-11T16:37:39.810Z,22.95
2022-12-11T16:40:06.124Z,23.00
2022-12-11T16:42:32.369Z,22.50
2022-12-11T16:44:58.657Z,23.60
2022-12-11T16:47:24.950Z,24.39
2022-12-11T16:49:51.227Z,23.42
2022-12-11T16:52:21.964Z,23.50
2022-12-11T16:54:48.642Z,23.28
2022-12-11T16:57:14.951Z,23.04
2022-12-11T16:59:41.259Z,25.01
2022-12-11T17:02:07.541Z,25.28
2022-12-11T17:04:33.801Z,25.01
2022-12-11T17:07:00.102Z,23.90
2022-12-11T17:09:26.375Z,23.54
2022-12-11T17:11:52.652Z,23.47
2022-12-11T17:14:18.931Z,24.43
2022-12-11T17:16:45.197Z,24.08
2022-12-11T17:19:11.468Z,22.73
2022-12-11T17:21:37.738Z,23.31
2022-12-11T17:24:04.021Z,23.49
2022-12-11T17:26:30.277Z,23.16
2022-12-11T17:28:56.538Z,23.99
2022-12-11T17:31:22.880Z,24.64
2022-12-11T17:33:49.188Z,24.25
2022-12-11T17:36:15.462Z,23.63
2022-12-11T17:38:41.743Z,23.88
2022-12-11T17:41:08.009Z,24.75
2022-12-11T17:43:34.284Z,23.48
2022-12-11T17:46:00.583Z,23.54
2022-12-11T17:48:26.877Z,23.76
2022-12-11T17:50:53.147Z,24.08
2022-12-11T17:53:19.439Z,25.18
2022-12-11T17:55:45.804Z,25.37
2022-12-11T17:58:12.090Z,25.96
2022-12-11T18:00:38.354Z,26.21
2022-12-11T18:03:04.595Z,27.45
2022-12-11T18:05:30.856Z,26.98
2022-12-11T18:07:58.120Z,26.61
2022-12-11T18:10:24.661Z,31.49
2022-12-11T18:12:50.913Z,30.66
2022-12-11T18:15:17.175Z,26.77
2022-12-11T18:17:43.463Z,27.33
2022-12-11T18:20:09.729Z,27.29
2022-12-11T18:22:35.999Z,28.28
2022-12-11T18:25:09.313Z,28.08
2022-12-11T18:27:36.018Z,28.37
2022-12-11T18:30:02.300Z,29.47
2022-12-11T18:32:28.570Z,30.09
2022-12-11T18:34:54.866Z,28.25
2022-12-11T18:37:26.202Z,28.59
2022-12-11T18:39:54.141Z,29.44
2022-12-11T18:42:35.910Z,29.93
2022-12-11T18:45:02.204Z,30.37
2022-12-11T18:47:28.520Z,28.38
2022-12-11T18:49:54.778Z,28.52
2022-12-11T18:52:21.043Z,29.19
2022-12-11T18:54:47.317Z,28.25
2022-12-11T18:57:13.591Z,28.29
2022-12-11T18:59:39.849Z,29.03
2022-12-11T19:02:06.121Z,28.55
2022-12-11T19:04:32.435Z,28.80
2022-12-11T19:06:58.695Z,29.35
2022-12-11T19:09:24.969Z,29.47
2022-12-11T19:11:51.239Z,29.07
2022-12-11T19:14:17.522Z,28.93
2022-12-11T19:16:43.782Z,28.95
2022-12-11T19:19:10.058Z,29.42
2022-12-11T19:21:36.310Z,29.55
2022-12-11T19:24:02.592Z,29.31
2022-12-11T19:26:28.901Z,30.64
2022-12-11T19:28:55.177Z,30.48
2022-12-11T19:31:21.488Z,30.25
2022-12-11T19:33:47.824Z,30.84
2022-12-11T19:36:14.097Z,31.81
2022-12-11T19:38:40.504Z,31.13
2022-12-11T19:41:06.801Z,29.79
2022-12-11T19:43:33.196Z,30.04
2022-12-11T19:45:59.468Z,30.80
2022-12-11T19:48:25.740Z,31.41
2022-12-11T19:50:52.016Z,32.25
2022-12-11T19:53:18.339Z,32.45
2022-12-11T19:55:44.700Z,33.06
2022-12-11T19:58:10.968Z,33.99
2022-12-11T20:00:37.281Z,32.55
2022-12-11T20:03:03.622Z,32.37
2022-12-11T20:05:29.921Z,31.82
2022-12-11T20:07:59.500Z,31.78
2022-12-11T20:10:31.701Z,31.40
2022-12-11T20:12:57.977Z,30.61
2022-12-11T20:15:24.238Z,31.62
2022-12-11T20:17:50.519Z,32.33
2022-12-11T20:20:16.798Z,31.50
2022-12-11T20:22:43.129Z,31.74
2022-12-11T20:25:09.690Z,32.49
2022-12-11T20:27:36.095Z,33.23
2022-12-11T20:30:02.340Z,33.16
2022-12-11T20:32:28.615Z,34.01
2022-12-11T20:34:54.910Z,34.16
2022-12-11T20:37:21.185Z,33.31
2022-12-11T20:39:47.445Z,33.13
2022-12-11T20:42:13.727Z,32.19
2022-12-11T20:44:42.823Z,32.59
2022-12-11T20:47:13.503Z,32.50
2022-12-11T20:49:39.776Z,32.77
2022-12-11T20:52:06.029Z,32.73
2022-12-11T20:54:32.391Z,31.83
2022-12-11T20:56:58.663Z,32.16
2022-12-11T20:59:24.982Z,31.63
2022-12-11T21:01:51.288Z,31.76
2022-12-11T21:04:18.682Z,31.26
2022-12-11T21:06:44.946Z,31.68
2022-12-11T21:09:11.208Z,31.40
2022-12-11T21:11:37.551Z,30.33
2022-12-11T21:14:03.855Z,31.67
2022-12-11T21:16:30.231Z,31.56
2022-12-11T21:18:56.602Z,31.09
2022-12-11T21:21:22.900Z,31.42
2022-12-11T21:23:49.146Z,30.28
2022-12-11T21:26:15.454Z,30.43
2022-12-11T21:28:41.741Z,30.86
2022-12-11T21:31:08.077Z,29.82
2022-12-11T21:33:34.337Z,29.70
2022-12-11T21:36:00.697Z,30.00
2022-12-11T21:38:26.991Z,29.36
2022-12-11T21:40:53.239Z,29.56
2022-12-11T21:43:19.496Z,30.36
2022-12-11T21:46:00.869Z,31.78
2022-12-11T21:48:28.381Z,30.45
2022-12-11T21:50:54.759Z,29.53
2022-12-11T21:53:21.091Z,29.59
2022-12-11T21:55:47.343Z,30.55
2022-12-11T21:58:13.699Z,30.42
2022-12-11T22:00:39.974Z,30.36
2022-12-11T22:03:06.293Z,30.87
2022-12-11T22:05:32.549Z,31.30
2022-12-11T22:07:58.861Z,30.48
2022-12-11T22:10:25.138Z,30.29
2022-12-11T22:12:51.385Z,31.40
2022-12-11T22:15:17.665Z,31.19
2022-12-11T22:17:43.928Z,30.71
2022-12-11T22:20:10.209Z,30.96
2022-12-11T22:22:36.495Z,30.55
2022-12-11T22:25:02.746Z,31.48
2022-12-11T22:27:28.981Z,31.47
2022-12-11T22:29:55.260Z,30.96
2022-12-11T22:32:21.519Z,31.44
2022-12-11T22:34:47.767Z,30.74
2022-12-11T22:37:14.023Z,30.70
2022-12-11T22:39:40.269Z,30.64
2022-12-11T22:42:06.543Z,30.38
2022-12-11T22:44:32.821Z,30.80
2022-12-11T22:46:59.127Z,30.91
2022-12-11T22:49:25.401Z,32.25
2022-12-11T22:51:51.682Z,31.63
2022-12-11T22:54:17.978Z,31.11
2022-12-11T22:56:44.237Z,31.45
2022-12-11T22:59:10.490Z,32.87
2022-12-11T23:01:36.770Z,32.22
2022-12-11T23:04:03.067Z,31.11
2022-12-11T23:06:29.498Z,31.09
2022-12-11T23:08:55.838Z,30.96
2022-12-11T23:11:22.174Z,30.85
2022-12-11T23:13:48.449Z,30.91
2022-12-11T23:16:14.720Z,30.95
2022-12-11T23:18:41.049Z,31.02
2022-12-11T23:21:07.309Z,30.54
2022-12-11T23:23:33.667Z,31.01
2022-12-11T23:25:59.912Z,30.26
2022-12-11T23:28:26.154Z,30.00
2022-12-11T23:30:52.479Z,31.14
2022-12-11T23:33:18.796Z,30.47
2022-12-11T23:35:45.078Z,30.87
2022-12-11T23:38:11.335Z,31.25
2022-12-11T23:40:37.622Z,31.17
2022-12-11T23:43:03.883Z,31.02
2022-12-11T23:45:30.143Z,30.39
2022-12-11T23:47:56.417Z,31.11
2022-12-11T23:50:22.678Z,30.63
2022-12-11T23:52:48.957Z,30.45
2022-12-11T23:55:15.314Z,30.14
2022-12-11T23:57:41.620Z,30.70
